sensor_id;sensor_type;location;lat;lon;timestamp;P1;durP1;ratioP1;P2;durP2;ratioP2
6348;SDS011;3207;42.648;23.406;2024-01-25T00:02:13;15.55;;;11.15;;
6348;SDS011;3207;42.648;23.406;2024-01-25T00:04:41;15.50;;;10.13;;
6348;SDS011;3207;42.648;23.406;2024-01-25T00:07:09;13.32;;;9.88;;
6348;SDS011;3207;42.648;23.406;2024-01-25T00:09:35;13.13;;;11.13;;
6348;SDS011;3207;42.648;23.406;2024-01-25T00:12:03;16.13;;;11.52;;
6348;SDS011;3207;42.648;23.406;2024-01-25T00:14:31;13.57;;;9.60;;
6348;SDS011;3207;42.648;23.406;2024-01-25T00:16:58;13.63;;;10.70;;
6348;SDS011;3207;42.648;23.406;2024-01-25T00:19:25;14.33;;;11.00;;
6348;SDS011;3207;42.648;23.406;2024-01-25T00:21:53;14.70;;;11.27;;
6348;SDS011;3207;42.648;23.406;2024-01-25T00:24:20;13.47;;;9.87;;
6348;SDS011;3207;42.648;23.406;2024-01-25T00:26:47;13.98;;;10.65;;
6348;SDS011;3207;42.648;23.406;2024-01-25T00:29:14;12.53;;;10.10;;
6348;SDS011;3207;42.648;23.406;2024-01-25T00:31:41;16.70;;;11.50;;
6348;SDS011;3207;42.648;23.406;2024-01-25T00:34:09;12.80;;;10.33;;
6348;SDS011;3207;42.648;23.406;2024-01-25T00:36:36;13.47;;;10.50;;
6348;SDS011;3207;42.648;23.406;2024-01-25T00:39:06;15.40;;;10.53;;
6348;SDS011;3207;42.648;23.406;2024-01-25T00:41:33;12.30;;;10.07;;
6348;SDS011;3207;42.648;23.406;2024-01-25T00:44:02;11.93;;;10.43;;
6348;SDS011;3207;42.648;23.406;2024-01-25T00:46:29;17.10;;;11.43;;
6348;SDS011;3207;42.648;23.406;2024-01-25T00:48:57;14.00;;;10.03;;
6348;SDS011;3207;42.648;23.406;2024-01-25T00:51:24;15.93;;;11.07;;
6348;SDS011;3207;42.648;23.406;2024-01-25T00:53:52;12.55;;;10.60;;
6348;SDS011;3207;42.648;23.406;2024-01-25T00:56:21;15.33;;;10.83;;
6348;SDS011;3207;42.648;23.406;2024-01-25T00:58:48;15.63;;;11.70;;
6348;SDS011;3207;42.648;23.406;2024-01-25T01:01:16;16.67;;;11.87;;
6348;SDS011;3207;42.648;23.406;2024-01-25T01:03:47;14.03;;;10.93;;
6348;SDS011;3207;42.648;23.406;2024-01-25T01:06:18;15.20;;;12.07;;
6348;SDS011;3207;42.648;23.406;2024-01-25T01:08:46;19.47;;;13.13;;
6348;SDS011;3207;42.648;23.406;2024-01-25T01:11:13;16.47;;;12.73;;
6348;SDS011;3207;42.648;23.406;2024-01-25T01:13:42;17.60;;;13.27;;
6348;SDS011;3207;42.648;23.406;2024-01-25T01:16:09;16.10;;;12.90;;
6348;SDS011;3207;42.648;23.406;2024-01-25T01:18:36;20.53;;;13.47;;
6348;SDS011;3207;42.648;23.406;2024-01-25T01:21:04;18.05;;;13.38;;
6348;SDS011;3207;42.648;23.406;2024-01-25T01:23:31;19.00;;;14.57;;
6348;SDS011;3207;42.648;23.406;2024-01-25T01:25:58;18.13;;;13.00;;
6348;SDS011;3207;42.648;23.406;2024-01-25T01:28:26;17.93;;;13.70;;
6348;SDS011;3207;42.648;23.406;2024-01-25T01:30:54;15.30;;;12.83;;
6348;SDS011;3207;42.648;23.406;2024-01-25T01:33:21;18.83;;;13.87;;
6348;SDS011;3207;42.648;23.406;2024-01-25T01:35:48;18.77;;;15.13;;
6348;SDS011;3207;42.648;23.406;2024-01-25T01:38:15;19.20;;;14.23;;
6348;SDS011;3207;42.648;23.406;2024-01-25T01:40:44;17.90;;;13.83;;
6348;SDS011;3207;42.648;23.406;2024-01-25T01:43:18;19.17;;;14.37;;
6348;SDS011;3207;42.648;23.406;2024-01-25T01:45:46;24.37;;;15.53;;
6348;SDS011;3207;42.648;23.406;2024-01-25T01:48:14;19.87;;;15.37;;
6348;SDS011;3207;42.648;23.406;2024-01-25T01:50:42;20.87;;;15.33;;
6348;SDS011;3207;42.648;23.406;2024-01-25T01:53:10;22.67;;;15.67;;
6348;SDS011;3207;42.648;23.406;2024-01-25T01:55:37;23.30;;;17.40;;
6348;SDS011;3207;42.648;23.406;2024-01-25T01:58:06;20.10;;;16.07;;
6348;SDS011;3207;42.648;23.406;2024-01-25T02:00:34;26.23;;;16.20;;
6348;SDS011;3207;42.648;23.406;2024-01-25T02:03:03;19.53;;;16.50;;
6348;SDS011;3207;42.648;23.406;2024-01-25T02:05:31;22.43;;;16.57;;
6348;SDS011;3207;42.648;23.406;2024-01-25T02:07:58;22.57;;;15.70;;
6348;SDS011;3207;42.648;23.406;2024-01-25T02:10:26;24.10;;;16.57;;
6348;SDS011;3207;42.648;23.406;2024-01-25T02:12:53;25.50;;;17.40;;
6348;SDS011;3207;42.648;23.406;2024-01-25T02:15:20;25.63;;;17.37;;
6348;SDS011;3207;42.648;23.406;2024-01-25T02:17:47;22.00;;;17.17;;
6348;SDS011;3207;42.648;23.406;2024-01-25T02:20:14;23.97;;;18.00;;
6348;SDS011;3207;42.648;23.406;2024-01-25T02:22:45;21.97;;;16.97;;
6348;SDS011;3207;42.648;23.406;2024-01-25T02:25:12;26.13;;;17.40;;
6348;SDS011;3207;42.648;23.406;2024-01-25T02:27:39;21.40;;;16.57;;
6348;SDS011;3207;42.648;23.406;2024-01-25T02:30:07;23.57;;;19.07;;
6348;SDS011;3207;42.648;23.406;2024-01-25T02:32:34;28.00;;;19.77;;
6348;SDS011;3207;42.648;23.406;2024-01-25T02:35:01;31.97;;;20.57;;
6348;SDS011;3207;42.648;23.406;2024-01-25T02:37:28;30.30;;;20.77;;
6348;SDS011;3207;42.648;23.406;2024-01-25T02:39:57;29.23;;;20.90;;
6348;SDS011;3207;42.648;23.406;2024-01-25T02:42:24;31.00;;;21.43;;
6348;SDS011;3207;42.648;23.406;2024-01-25T02:44:51;29.00;;;20.40;;
6348;SDS011;3207;42.648;23.406;2024-01-25T02:47:18;31.30;;;22.37;;
6348;SDS011;3207;42.648;23.406;2024-01-25T02:49:45;30.43;;;21.80;;
6348;SDS011;3207;42.648;23.406;2024-01-25T02:52:12;32.43;;;21.27;;
6348;SDS011;3207;42.648;23.406;2024-01-25T02:54:39;26.33;;;20.60;;
6348;SDS011;3207;42.648;23.406;2024-01-25T02:57:07;28.13;;;19.70;;
6348;SDS011;3207;42.648;23.406;2024-01-25T02:59:34;28.33;;;20.13;;
6348;SDS011;3207;42.648;23.406;2024-01-25T03:02:01;29.47;;;19.47;;
6348;SDS011;3207;42.648;23.406;2024-01-25T03:04:28;27.20;;;19.30;;
6348;SDS011;3207;42.648;23.406;2024-01-25T03:06:55;27.17;;;19.40;;
6348;SDS011;3207;42.648;23.406;2024-01-25T03:09:22;29.60;;;19.73;;
6348;SDS011;3207;42.648;23.406;2024-01-25T03:11:49;29.03;;;20.23;;
6348;SDS011;3207;42.648;23.406;2024-01-25T03:14:17;26.77;;;18.50;;
6348;SDS011;3207;42.648;23.406;2024-01-25T03:16:44;27.87;;;19.47;;
6348;SDS011;3207;42.648;23.406;2024-01-25T03:19:12;24.67;;;19.07;;
6348;SDS011;3207;42.648;23.406;2024-01-25T03:21:39;24.70;;;18.33;;
6348;SDS011;3207;42.648;23.406;2024-01-25T03:24:06;28.37;;;20.33;;
6348;SDS011;3207;42.648;23.406;2024-01-25T03:26:33;30.80;;;19.97;;
6348;SDS011;3207;42.648;23.406;2024-01-25T03:29:00;28.87;;;20.83;;
6348;SDS011;3207;42.648;23.406;2024-01-25T03:31:29;35.47;;;20.40;;
6348;SDS011;3207;42.648;23.406;2024-01-25T03:33:56;26.40;;;21.07;;
6348;SDS011;3207;42.648;23.406;2024-01-25T03:36:23;25.80;;;19.10;;
6348;SDS011;3207;42.648;23.406;2024-01-25T03:38:50;25.80;;;18.93;;
6348;SDS011;3207;42.648;23.406;2024-01-25T03:41:17;25.93;;;18.93;;
6348;SDS011;3207;42.648;23.406;2024-01-25T03:43:44;26.03;;;18.80;;
6348;SDS011;3207;42.648;23.406;2024-01-25T03:46:11;26.93;;;18.70;;
6348;SDS011;3207;42.648;23.406;2024-01-25T03:48:40;23.90;;;17.33;;
6348;SDS011;3207;42.648;23.406;2024-01-25T03:51:07;26.90;;;19.53;;
6348;SDS011;3207;42.648;23.406;2024-01-25T03:53:34;25.37;;;19.40;;
6348;SDS011;3207;42.648;23.406;2024-01-25T03:56:02;29.97;;;18.63;;
6348;SDS011;3207;42.648;23.406;2024-01-25T03:58:29;26.90;;;18.70;;
6348;SDS011;3207;42.648;23.406;2024-01-25T04:00:56;24.90;;;20.33;;
6348;SDS011;3207;42.648;23.406;2024-01-25T04:03:23;25.90;;;18.40;;
6348;SDS011;3207;42.648;23.406;2024-01-25T04:05:52;25.93;;;18.40;;
6348;SDS011;3207;42.648;23.406;2024-01-25T04:08:19;25.33;;;17.50;;
6348;SDS011;3207;42.648;23.406;2024-01-25T04:10:46;22.70;;;16.10;;
6348;SDS011;3207;42.648;23.406;2024-01-25T04:13:13;19.37;;;15.80;;
6348;SDS011;3207;42.648;23.406;2024-01-25T04:15:46;21.73;;;15.70;;
6348;SDS011;3207;42.648;23.406;2024-01-25T04:18:13;18.17;;;13.80;;
6348;SDS011;3207;42.648;23.406;2024-01-25T04:20:41;15.77;;;13.13;;
6348;SDS011;3207;42.648;23.406;2024-01-25T04:23:09;21.03;;;14.83;;
6348;SDS011;3207;42.648;23.406;2024-01-25T04:25:36;19.13;;;14.30;;
6348;SDS011;3207;42.648;23.406;2024-01-25T04:28:03;16.60;;;13.03;;
6348;SDS011;3207;42.648;23.406;2024-01-25T04:30:30;16.60;;;13.20;;
6348;SDS011;3207;42.648;23.406;2024-01-25T04:32:58;16.73;;;13.53;;
6348;SDS011;3207;42.648;23.406;2024-01-25T04:35:25;19.80;;;13.87;;
6348;SDS011;3207;42.648;23.406;2024-01-25T04:37:52;17.00;;;13.70;;
6348;SDS011;3207;42.648;23.406;2024-01-25T04:40:21;20.23;;;13.80;;
6348;SDS011;3207;42.648;23.406;2024-01-25T04:42:47;23.17;;;14.37;;
6348;SDS011;3207;42.648;23.406;2024-01-25T04:45:15;16.87;;;12.83;;
6348;SDS011;3207;42.648;23.406;2024-01-25T04:47:42;14.70;;;12.07;;
6348;SDS011;3207;42.648;23.406;2024-01-25T04:50:09;17.00;;;12.87;;
6348;SDS011;3207;42.648;23.406;2024-01-25T04:52:36;20.23;;;14.70;;
6348;SDS011;3207;42.648;23.406;2024-01-25T04:55:03;16.83;;;14.00;;
6348;SDS011;3207;42.648;23.406;2024-01-25T04:57:32;16.03;;;12.73;;
6348;SDS011;3207;42.648;23.406;2024-01-25T04:59:59;16.07;;;13.03;;
6348;SDS011;3207;42.648;23.406;2024-01-25T05:02:26;17.90;;;13.67;;
6348;SDS011;3207;42.648;23.406;2024-01-25T05:04:53;15.50;;;12.47;;
6348;SDS011;3207;42.648;23.406;2024-01-25T05:07:20;15.00;;;12.17;;
6348;SDS011;3207;42.648;23.406;2024-01-25T05:09:47;14.77;;;11.53;;
6348;SDS011;3207;42.648;23.406;2024-01-25T05:12:14;16.73;;;12.20;;
6348;SDS011;3207;42.648;23.406;2024-01-25T05:14:43;14.57;;;11.80;;
6348;SDS011;3207;42.648;23.406;2024-01-25T05:17:10;18.73;;;11.93;;
6348;SDS011;3207;42.648;23.406;2024-01-25T05:19:37;17.50;;;13.20;;
6348;SDS011;3207;42.648;23.406;2024-01-25T05:22:04;15.93;;;12.67;;
6348;SDS011;3207;42.648;23.406;2024-01-25T05:24:32;16.47;;;13.73;;
6348;SDS011;3207;42.648;23.406;2024-01-25T05:26:59;19.00;;;13.67;;
6348;SDS011;3207;42.648;23.406;2024-01-25T05:29:27;17.80;;;14.33;;
6348;SDS011;3207;42.648;23.406;2024-01-25T05:31:55;22.23;;;16.40;;
6348;SDS011;3207;42.648;23.406;2024-01-25T05:34:22;18.93;;;14.03;;
6348;SDS011;3207;42.648;23.406;2024-01-25T05:36:50;17.93;;;13.13;;
6348;SDS011;3207;42.648;23.406;2024-01-25T05:39:17;16.10;;;13.13;;
6348;SDS011;3207;42.648;23.406;2024-01-25T05:41:44;16.27;;;13.10;;
6348;SDS011;3207;42.648;23.406;2024-01-25T05:44:11;18.40;;;13.70;;
6348;SDS011;3207;42.648;23.406;2024-01-25T05:46:38;21.70;;;14.00;;
6348;SDS011;3207;42.648;23.406;2024-01-25T05:49:07;19.93;;;13.97;;
6348;SDS011;3207;42.648;23.406;2024-01-25T05:51:34;18.43;;;14.60;;
6348;SDS011;3207;42.648;23.406;2024-01-25T05:54:01;25.27;;;15.47;;
6348;SDS011;3207;42.648;23.406;2024-01-25T05:56:28;19.47;;;14.50;;
6348;SDS011;3207;42.648;23.406;2024-01-25T05:58:55;16.73;;;13.73;;
6348;SDS011;3207;42.648;23.406;2024-01-25T06:01:22;20.47;;;14.83;;
6348;SDS011;3207;42.648;23.406;2024-01-25T06:03:50;18.50;;;13.77;;
6348;SDS011;3207;42.648;23.406;2024-01-25T06:06:18;20.60;;;15.03;;
6348;SDS011;3207;42.648;23.406;2024-01-25T06:08:45;22.93;;;15.13;;
6348;SDS011;3207;42.648;23.406;2024-01-25T06:11:13;20.10;;;14.50;;
6348;SDS011;3207;42.648;23.406;2024-01-25T06:13:40;20.60;;;15.67;;
6348;SDS011;3207;42.648;23.406;2024-01-25T06:16:07;19.00;;;14.77;;
6348;SDS011;3207;42.648;23.406;2024-01-25T06:18:34;17.33;;;14.10;;
6348;SDS011;3207;42.648;23.406;2024-01-25T06:21:02;18.67;;;14.07;;
6348;SDS011;3207;42.648;23.406;2024-01-25T06:23:30;20.97;;;14.70;;
6348;SDS011;3207;42.648;23.406;2024-01-25T06:25:57;23.43;;;17.27;;
6348;SDS011;3207;42.648;23.406;2024-01-25T06:28:24;31.37;;;20.70;;
6348;SDS011;3207;42.648;23.406;2024-01-25T06:30:52;26.70;;;19.47;;
6348;SDS011;3207;42.648;23.406;2024-01-25T06:33:22;31.50;;;20.97;;
6348;SDS011;3207;42.648;23.406;2024-01-25T06:35:49;22.30;;;15.40;;
6348;SDS011;3207;42.648;23.406;2024-01-25T06:38:15;20.80;;;15.97;;
6348;SDS011;3207;42.648;23.406;2024-01-25T06:40:45;24.27;;;15.27;;
6348;SDS011;3207;42.648;23.406;2024-01-25T06:43:12;21.70;;;15.47;;
6348;SDS011;3207;42.648;23.406;2024-01-25T06:45:39;27.67;;;18.93;;
6348;SDS011;3207;42.648;23.406;2024-01-25T06:48:07;25.07;;;18.07;;
6348;SDS011;3207;42.648;23.406;2024-01-25T06:50:34;25.47;;;18.90;;
6348;SDS011;3207;42.648;23.406;2024-01-25T06:53:02;27.43;;;18.37;;
6348;SDS011;3207;42.648;23.406;2024-01-25T06:55:30;25.33;;;17.30;;
6348;SDS011;3207;42.648;23.406;2024-01-25T06:57:59;28.23;;;19.13;;
6348;SDS011;3207;42.648;23.406;2024-01-25T07:00:26;23.93;;;18.80;;
6348;SDS011;3207;42.648;23.406;2024-01-25T07:02:53;25.57;;;18.90;;
6348;SDS011;3207;42.648;23.406;2024-01-25T07:05:20;27.27;;;18.53;;
6348;SDS011;3207;42.648;23.406;2024-01-25T07:07:47;24.00;;;19.33;;
6348;SDS011;3207;42.648;23.406;2024-01-25T07:10:14;26.50;;;19.70;;
6348;SDS011;3207;42.648;23.406;2024-01-25T07:12:41;29.00;;;18.53;;
6348;SDS011;3207;42.648;23.406;2024-01-25T07:15:10;32.60;;;21.23;;
6348;SDS011;3207;42.648;23.406;2024-01-25T07:17:37;28.73;;;21.47;;
6348;SDS011;3207;42.648;23.406;2024-01-25T07:20:04;27.80;;;21.10;;
6348;SDS011;3207;42.648;23.406;2024-01-25T07:22:32;30.47;;;20.33;;
6348;SDS011;3207;42.648;23.406;2024-01-25T07:25:00;32.40;;;21.50;;
6348;SDS011;3207;42.648;23.406;2024-01-25T07:27:27;25.90;;;19.07;;
6348;SDS011;3207;42.648;23.406;2024-01-25T07:29:54;28.10;;;21.30;;
6348;SDS011;3207;42.648;23.406;2024-01-25T07:32:22;32.47;;;22.33;;
6348;SDS011;3207;42.648;23.406;2024-01-25T07:34:50;28.77;;;20.57;;
6348;SDS011;3207;42.648;23.406;2024-01-25T07:37:18;30.07;;;20.90;;
6348;SDS011;3207;42.648;23.406;2024-01-25T07:39:45;26.87;;;20.27;;
6348;SDS011;3207;42.648;23.406;2024-01-25T07:42:12;27.43;;;21.53;;
6348;SDS011;3207;42.648;23.406;2024-01-25T07:44:39;28.77;;;21.23;;
6348;SDS011;3207;42.648;23.406;2024-01-25T07:47:06;36.07;;;22.60;;
6348;SDS011;3207;42.648;23.406;2024-01-25T07:49:35;33.40;;;23.63;;
6348;SDS011;3207;42.648;23.406;2024-01-25T07:52:02;34.60;;;23.60;;
6348;SDS011;3207;42.648;23.406;2024-01-25T07:54:29;35.97;;;25.33;;
6348;SDS011;3207;42.648;23.406;2024-01-25T07:56:56;31.53;;;23.80;;
6348;SDS011;3207;42.648;23.406;2024-01-25T07:59:23;40.50;;;22.33;;
6348;SDS011;3207;42.648;23.406;2024-01-25T08:01:50;35.53;;;25.67;;
6348;SDS011;3207;42.648;23.406;2024-01-25T08:04:17;35.27;;;24.63;;
6348;SDS011;3207;42.648;23.406;2024-01-25T08:06:46;32.73;;;23.73;;
6348;SDS011;3207;42.648;23.406;2024-01-25T08:09:13;34.10;;;23.97;;
6348;SDS011;3207;42.648;23.406;2024-01-25T08:11:41;38.17;;;22.17;;
6348;SDS011;3207;42.648;23.406;2024-01-25T08:14:08;32.70;;;23.03;;
6348;SDS011;3207;42.648;23.406;2024-01-25T08:16:36;35.10;;;24.00;;
6348;SDS011;3207;42.648;23.406;2024-01-25T08:19:03;35.60;;;23.87;;
6348;SDS011;3207;42.648;23.406;2024-01-25T08:21:30;33.93;;;22.73;;
6348;SDS011;3207;42.648;23.406;2024-01-25T08:23:59;31.47;;;22.50;;
6348;SDS011;3207;42.648;23.406;2024-01-25T08:26:26;33.07;;;23.20;;
6348;SDS011;3207;42.648;23.406;2024-01-25T08:28:53;33.87;;;22.10;;
6348;SDS011;3207;42.648;23.406;2024-01-25T08:31:20;33.27;;;24.23;;
6348;SDS011;3207;42.648;23.406;2024-01-25T08:33:47;34.60;;;22.53;;
6348;SDS011;3207;42.648;23.406;2024-01-25T08:36:16;36.90;;;23.93;;
6348;SDS011;3207;42.648;23.406;2024-01-25T08:38:44;39.10;;;25.10;;
6348;SDS011;3207;42.648;23.406;2024-01-25T08:41:13;35.20;;;21.87;;
6348;SDS011;3207;42.648;23.406;2024-01-25T08:43:41;31.67;;;21.93;;
6348;SDS011;3207;42.648;23.406;2024-01-25T08:46:08;27.43;;;19.93;;
6348;SDS011;3207;42.648;23.406;2024-01-25T08:48:35;28.17;;;20.37;;
6348;SDS011;3207;42.648;23.406;2024-01-25T08:51:02;27.23;;;20.63;;
6348;SDS011;3207;42.648;23.406;2024-01-25T08:53:29;31.23;;;24.37;;
6348;SDS011;3207;42.648;23.406;2024-01-25T08:55:58;36.80;;;27.80;;
6348;SDS011;3207;42.648;23.406;2024-01-25T08:58:27;38.93;;;30.07;;
6348;SDS011;3207;42.648;23.406;2024-01-25T09:00:54;33.40;;;24.53;;
6348;SDS011;3207;42.648;23.406;2024-01-25T09:03:21;27.27;;;22.53;;
6348;SDS011;3207;42.648;23.406;2024-01-25T09:05:48;33.30;;;23.67;;
6348;SDS011;3207;42.648;23.406;2024-01-25T09:08:15;31.87;;;22.17;;
6348;SDS011;3207;42.648;23.406;2024-01-25T09:10:42;34.77;;;24.47;;
6348;SDS011;3207;42.648;23.406;2024-01-25T09:13:09;31.43;;;21.97;;
6348;SDS011;3207;42.648;23.406;2024-01-25T09:15:38;30.40;;;21.00;;
6348;SDS011;3207;42.648;23.406;2024-01-25T09:18:05;27.47;;;18.73;;
6348;SDS011;3207;42.648;23.406;2024-01-25T09:20:32;28.57;;;19.07;;
6348;SDS011;3207;42.648;23.406;2024-01-25T09:22:59;25.47;;;18.47;;
6348;SDS011;3207;42.648;23.406;2024-01-25T09:25:27;26.53;;;18.67;;
6348;SDS011;3207;42.648;23.406;2024-01-25T09:27:55;20.93;;;16.93;;
6348;SDS011;3207;42.648;23.406;2024-01-25T09:30:23;23.13;;;17.17;;
6348;SDS011;3207;42.648;23.406;2024-01-25T09:32:51;18.27;;;14.80;;
6348;SDS011;3207;42.648;23.406;2024-01-25T09:35:18;18.63;;;15.30;;
6348;SDS011;3207;42.648;23.406;2024-01-25T09:37:45;22.90;;;18.05;;
6348;SDS011;3207;42.648;23.406;2024-01-25T09:40:15;20.65;;;16.23;;
6348;SDS011;3207;42.648;23.406;2024-01-25T09:42:42;31.40;;;15.80;;
6348;SDS011;3207;42.648;23.406;2024-01-25T09:45:09;17.38;;;14.80;;
6348;SDS011;3207;42.648;23.406;2024-01-25T09:47:42;18.35;;;15.90;;
6348;SDS011;3207;42.648;23.406;2024-01-25T09:50:11;23.02;;;18.70;;
6348;SDS011;3207;42.648;23.406;2024-01-25T09:52:39;22.23;;;18.02;;
6348;SDS011;3207;42.648;23.406;2024-01-25T09:55:12;18.30;;;16.60;;
6348;SDS011;3207;42.648;23.406;2024-01-25T09:57:46;20.77;;;18.75;;
6348;SDS011;3207;42.648;23.406;2024-01-25T10:00:17;23.65;;;21.23;;
6348;SDS011;3207;42.648;23.406;2024-01-25T10:02:47;22.17;;;19.95;;
6348;SDS011;3207;42.648;23.406;2024-01-25T10:05:15;22.70;;;20.35;;
6348;SDS011;3207;42.648;23.406;2024-01-25T10:07:44;22.75;;;20.63;;
6348;SDS011;3207;42.648;23.406;2024-01-25T10:10:12;23.25;;;21.13;;
6348;SDS011;3207;42.648;23.406;2024-01-25T10:12:40;21.65;;;19.50;;
6348;SDS011;3207;42.648;23.406;2024-01-25T10:15:08;20.05;;;18.25;;
6348;SDS011;3207;42.648;23.406;2024-01-25T10:17:35;20.65;;;18.95;;
6348;SDS011;3207;42.648;23.406;2024-01-25T10:20:04;22.48;;;20.48;;
6348;SDS011;3207;42.648;23.406;2024-01-25T10:22:37;20.52;;;18.50;;
6348;SDS011;3207;42.648;23.406;2024-01-25T10:25:06;19.63;;;17.92;;
6348;SDS011;3207;42.648;23.406;2024-01-25T10:27:38;19.35;;;17.75;;
6348;SDS011;3207;42.648;23.406;2024-01-25T10:30:06;19.80;;;18.08;;
6348;SDS011;3207;42.648;23.406;2024-01-25T10:32:35;18.35;;;16.95;;
6348;SDS011;3207;42.648;23.406;2024-01-25T10:35:02;17.73;;;16.13;;
6348;SDS011;3207;42.648;23.406;2024-01-25T10:37:30;18.67;;;17.02;;
6348;SDS011;3207;42.648;23.406;2024-01-25T10:39:59;17.85;;;16.35;;
6348;SDS011;3207;42.648;23.406;2024-01-25T10:42:26;19.52;;;17.63;;
6348;SDS011;3207;42.648;23.406;2024-01-25T10:44:53;18.55;;;16.98;;
6348;SDS011;3207;42.648;23.406;2024-01-25T10:47:20;20.45;;;18.25;;
6348;SDS011;3207;42.648;23.406;2024-01-25T10:49:48;19.17;;;17.45;;
6348;SDS011;3207;42.648;23.406;2024-01-25T10:52:16;18.52;;;16.92;;
6348;SDS011;3207;42.648;23.406;2024-01-25T10:54:44;19.40;;;17.70;;
6348;SDS011;3207;42.648;23.406;2024-01-25T10:57:13;18.38;;;16.77;;
6348;SDS011;3207;42.648;23.406;2024-01-25T10:59:40;16.88;;;15.38;;
6348;SDS011;3207;42.648;23.406;2024-01-25T11:02:07;17.48;;;15.75;;
6348;SDS011;3207;42.648;23.406;2024-01-25T11:04:35;19.23;;;16.65;;
6348;SDS011;3207;42.648;23.406;2024-01-25T11:07:06;17.35;;;15.88;;
6348;SDS011;3207;42.648;23.406;2024-01-25T11:09:34;17.67;;;16.17;;
6348;SDS011;3207;42.648;23.406;2024-01-25T11:12:01;16.83;;;15.32;;
6348;SDS011;3207;42.648;23.406;2024-01-25T11:14:40;15.70;;;14.05;;
6348;SDS011;3207;42.648;23.406;2024-01-25T11:17:18;16.65;;;15.10;;
6348;SDS011;3207;42.648;23.406;2024-01-25T11:19:46;15.77;;;14.45;;
6348;SDS011;3207;42.648;23.406;2024-01-25T11:22:14;15.55;;;14.20;;
6348;SDS011;3207;42.648;23.406;2024-01-25T11:24:41;15.07;;;13.68;;
6348;SDS011;3207;42.648;23.406;2024-01-25T11:27:09;14.88;;;13.50;;
6348;SDS011;3207;42.648;23.406;2024-01-25T11:29:38;14.18;;;12.88;;
6348;SDS011;3207;42.648;23.406;2024-01-25T11:32:06;14.88;;;13.48;;
6348;SDS011;3207;42.648;23.406;2024-01-25T11:34:33;15.25;;;13.90;;
6348;SDS011;3207;42.648;23.406;2024-01-25T11:37:00;14.52;;;13.18;;
6348;SDS011;3207;42.648;23.406;2024-01-25T11:39:27;18.63;;;16.90;;
6348;SDS011;3207;42.648;23.406;2024-01-25T11:41:54;15.32;;;14.02;;
6348;SDS011;3207;42.648;23.406;2024-01-25T11:44:24;13.38;;;11.98;;
6348;SDS011;3207;42.648;23.406;2024-01-25T11:46:54;12.45;;;10.95;;
6348;SDS011;3207;42.648;23.406;2024-01-25T11:49:23;13.57;;;12.10;;
6348;SDS011;3207;42.648;23.406;2024-01-25T11:51:50;11.85;;;10.85;;
6348;SDS011;3207;42.648;23.406;2024-01-25T11:54:17;10.93;;;10.02;;
6348;SDS011;3207;42.648;23.406;2024-01-25T11:56:44;11.93;;;10.90;;
6348;SDS011;3207;42.648;23.406;2024-01-25T11:59:12;11.75;;;10.50;;
6348;SDS011;3207;42.648;23.406;2024-01-25T12:01:40;10.90;;;9.90;;
6348;SDS011;3207;42.648;23.406;2024-01-25T12:04:08;10.55;;;9.57;;
6348;SDS011;3207;42.648;23.406;2024-01-25T12:06:36;9.25;;;8.45;;
6348;SDS011;3207;42.648;23.406;2024-01-25T12:09:07;8.63;;;7.82;;
6348;SDS011;3207;42.648;23.406;2024-01-25T12:11:34;9.73;;;8.38;;
6348;SDS011;3207;42.648;23.406;2024-01-25T12:14:02;8.30;;;7.13;;
6348;SDS011;3207;42.648;23.406;2024-01-25T12:16:29;7.65;;;6.95;;
6348;SDS011;3207;42.648;23.406;2024-01-25T12:18:56;8.57;;;7.18;;
6348;SDS011;3207;42.648;23.406;2024-01-25T12:21:24;7.55;;;6.57;;
6348;SDS011;3207;42.648;23.406;2024-01-25T12:23:51;7.57;;;6.93;;
6348;SDS011;3207;42.648;23.406;2024-01-25T12:26:18;9.40;;;8.43;;
6348;SDS011;3207;42.648;23.406;2024-01-25T12:28:46;7.18;;;6.50;;
6348;SDS011;3207;42.648;23.406;2024-01-25T12:31:15;6.35;;;5.88;;
6348;SDS011;3207;42.648;23.406;2024-01-25T12:33:42;9.57;;;5.75;;
6348;SDS011;3207;42.648;23.406;2024-01-25T12:36:09;6.03;;;5.43;;
6348;SDS011;3207;42.648;23.406;2024-01-25T12:38:38;5.25;;;4.85;;
6348;SDS011;3207;42.648;23.406;2024-01-25T12:41:05;5.72;;;5.30;;
6348;SDS011;3207;42.648;23.406;2024-01-25T12:43:32;7.32;;;4.40;;
6348;SDS011;3207;42.648;23.406;2024-01-25T12:45:59;3.88;;;3.53;;
6348;SDS011;3207;42.648;23.406;2024-01-25T12:48:26;9.63;;;4.20;;
6348;SDS011;3207;42.648;23.406;2024-01-25T12:50:53;6.00;;;4.03;;
6348;SDS011;3207;42.648;23.406;2024-01-25T12:53:20;4.43;;;3.92;;
6348;SDS011;3207;42.648;23.406;2024-01-25T12:55:49;9.25;;;4.25;;
6348;SDS011;3207;42.648;23.406;2024-01-25T12:58:16;4.25;;;3.67;;
6348;SDS011;3207;42.648;23.406;2024-01-25T13:00:43;3.38;;;3.10;;
6348;SDS011;3207;42.648;23.406;2024-01-25T13:03:10;6.90;;;3.70;;
6348;SDS011;3207;42.648;23.406;2024-01-25T13:05:37;5.90;;;4.63;;
6348;SDS011;3207;42.648;23.406;2024-01-25T13:08:05;6.03;;;5.28;;
6348;SDS011;3207;42.648;23.406;2024-01-25T13:10:32;9.32;;;6.45;;
6348;SDS011;3207;42.648;23.406;2024-01-25T13:13:01;11.05;;;4.55;;
6348;SDS011;3207;42.648;23.406;2024-01-25T13:15:28;5.40;;;4.57;;
6348;SDS011;3207;42.648;23.406;2024-01-25T13:17:55;6.70;;;4.82;;
6348;SDS011;3207;42.648;23.406;2024-01-25T13:20:22;5.85;;;5.22;;
6348;SDS011;3207;42.648;23.406;2024-01-25T13:22:49;7.15;;;5.72;;
6348;SDS011;3207;42.648;23.406;2024-01-25T13:25:19;4.93;;;4.22;;
6348;SDS011;3207;42.648;23.406;2024-01-25T13:27:46;4.05;;;3.67;;
6348;SDS011;3207;42.648;23.406;2024-01-25T13:30:15;7.05;;;4.25;;
6348;SDS011;3207;42.648;23.406;2024-01-25T13:32:42;4.85;;;3.67;;
6348;SDS011;3207;42.648;23.406;2024-01-25T13:35:09;2.88;;;2.67;;
6348;SDS011;3207;42.648;23.406;2024-01-25T13:37:37;3.75;;;2.63;;
6348;SDS011;3207;42.648;23.406;2024-01-25T13:40:04;2.90;;;2.60;;
6348;SDS011;3207;42.648;23.406;2024-01-25T13:42:32;4.28;;;3.15;;
6348;SDS011;3207;42.648;23.406;2024-01-25T13:44:59;7.47;;;2.80;;
6348;SDS011;3207;42.648;23.406;2024-01-25T13:47:27;4.45;;;2.88;;
6348;SDS011;3207;42.648;23.406;2024-01-25T13:49:54;2.80;;;2.60;;
6348;SDS011;3207;42.648;23.406;2024-01-25T13:52:21;3.03;;;2.83;;
6348;SDS011;3207;42.648;23.406;2024-01-25T13:54:48;3.03;;;2.83;;
6348;SDS011;3207;42.648;23.406;2024-01-25T13:57:14;3.30;;;2.90;;
6348;SDS011;3207;42.648;23.406;2024-01-25T13:59:41;6.72;;;4.82;;
6348;SDS011;3207;42.648;23.406;2024-01-25T14:02:08;8.52;;;5.45;;
6348;SDS011;3207;42.648;23.406;2024-01-25T14:04:37;9.65;;;5.43;;
6348;SDS011;3207;42.648;23.406;2024-01-25T14:07:04;4.90;;;3.38;;
6348;SDS011;3207;42.648;23.406;2024-01-25T14:09:31;6.45;;;4.18;;
6348;SDS011;3207;42.648;23.406;2024-01-25T14:11:58;5.97;;;4.13;;
6348;SDS011;3207;42.648;23.406;2024-01-25T14:14:25;6.57;;;4.05;;
6348;SDS011;3207;42.648;23.406;2024-01-25T14:16:52;7.30;;;4.05;;
6348;SDS011;3207;42.648;23.406;2024-01-25T14:19:19;5.78;;;4.68;;
6348;SDS011;3207;42.648;23.406;2024-01-25T14:21:48;6.93;;;3.67;;
6348;SDS011;3207;42.648;23.406;2024-01-25T14:24:16;3.15;;;2.85;;
6348;SDS011;3207;42.648;23.406;2024-01-25T14:26:43;4.05;;;3.65;;
6348;SDS011;3207;42.648;23.406;2024-01-25T14:29:11;5.88;;;3.67;;
6348;SDS011;3207;42.648;23.406;2024-01-25T14:31:42;4.63;;;3.08;;
6348;SDS011;3207;42.648;23.406;2024-01-25T14:34:09;4.85;;;3.60;;
6348;SDS011;3207;42.648;23.406;2024-01-25T14:36:36;3.97;;;3.38;;
6348;SDS011;3207;42.648;23.406;2024-01-25T14:39:05;4.20;;;3.78;;
6348;SDS011;3207;42.648;23.406;2024-01-25T14:41:33;3.53;;;3.13;;